Time;durP1;ratioP1;P1;durP2;ratioP2;P2;SDS_P1;SDS_P2;PMS_P1;PMS_P2;Temp;Humidity;BMP_temperature;BMP_pressure;BME280_temperature;BME280_humidity;BME280_pressure;Samples;Min_cycle;Max_cycle;Signal;HPM_P1;HPM_P2
2022/05/15 00:02:08;;;;;;;;;;;;;;;-140.72;100.00;52516.66;5021871;28;20261;-71
2022/05/15 00:04:34;;;;;;;;;;;;;;;-140.72;100.00;52500.44;5015749;28;19918;-71
2022/05/15 00:06:59;;;;;;;;;;;;;;;-140.72;100.00;52465.94;5014944;28;19918;-71
2022/05/15 00:09:24;;;;;;;;;;;;;;;-140.72;100.00;52502.47;5022164;28;19924;-71
2022/05/15 00:11:49;;;;;;;;;;;;;;;-140.72;100.00;52520.72;5021145;28;20000;-71
2022/05/15 00:14:15;;;;;;;;;;;;;;;-140.72;100.00;52472.03;5022499;28;19917;-71
2022/05/15 00:16:41;;;;;;;;;;;;;;;-140.72;100.00;52536.97;5022440;28;19941;-71
2022/05/15 00:19:06;;;;;;;;;;;;;;;-140.72;100.00;52514.63;5023810;28;19968;-71
2022/05/15 00:21:32;;;;;;;;;;;;;;;-140.72;100.00;52541.03;5022432;28;20292;-71
2022/05/15 00:23:59;;;;;;;;;;;;;;;-140.72;100.00;52520.72;5020587;28;19968;-71
2022/05/15 00:26:25;;;;;;;;;;;;;;;-140.72;100.00;52504.50;5036810;28;19917;-71
2022/05/15 00:28:50;;;;;;;;;;;;;;;-140.72;100.00;52498.41;5021953;28;20450;-71
2022/05/15 00:31:15;;;;;;;;;;;;;;;-140.72;100.00;52553.19;5022486;28;19923;-71
2022/05/15 00:33:42;;;;;;;;;;;;;;;-140.72;100.00;52524.78;5022279;28;20337;-71
2022/05/15 00:36:07;;;;;;;;;;;;;;;-140.72;100.00;52508.56;5039557;28;19921;-71
2022/05/15 00:38:32;;;;;;;;;;;;;;;-140.72;100.00;52508.56;5041664;28;19992;-71
2022/05/15 00:40:57;;;;;;;;;;;;;;;-140.72;100.00;52539.00;5041972;28;19929;-71
2022/05/15 00:43:41;;;;;;;;;;;;;;;-140.72;100.00;52496.38;5023963;28;19937;-71
2022/05/15 00:46:09;;;;;;;;;;;;;;;-140.72;100.00;52545.06;5041176;28;19947;-71
2022/05/15 00:48:34;;;;;;;;;;;;;;;-140.72;100.00;52541.03;5041779;28;20299;-71
2022/05/15 00:51:03;;;;;;;;;;;;;;;-140.72;100.00;52520.72;5040905;28;19957;-70
2022/05/15 00:53:28;;;;;;;;;;;;;;;-140.72;100.00;52482.16;5040114;28;19917;-70
2022/05/15 00:55:54;;;;;;;;;;;;;;;-140.72;100.00;52569.44;5041117;28;19980;-71
2022/05/15 00:58:24;;;;;;;;;;;;;;;-140.72;100.00;52528.84;5040372;28;19917;-70
2022/05/15 01:00:49;;;;;;;;;;;;;;;-140.72;100.00;52480.16;5033396;28;19922;-70
2022/05/15 01:03:16;;;;;;;;;;;;;;;-140.72;100.00;52510.59;5042696;28;19924;-70
2022/05/15 01:05:44;;;;;;;;;;;;;;;-140.72;100.00;52496.38;5025689;28;19917;-70
2022/05/15 01:08:13;;;;;;;;;;;;;;;-140.72;100.00;52547.09;5044013;28;19917;-71
2022/05/15 01:10:40;;;;;;;;;;;;;;;-140.72;100.00;52522.75;5043538;28;19975;-71
2022/05/15 01:13:05;;;;;;;;;;;;;;;-140.72;100.00;52536.97;5044314;28;19924;-71
2022/05/15 01:15:31;;;;;;;;;;;;;;;-140.72;100.00;52514.63;5042156;28;19917;-70
2022/05/15 01:17:56;;;;;;;;;;;;;;;-140.72;100.00;52547.09;5041102;28;19917;-71
2022/05/15 01:20:24;;;;;;;;;;;;;;;-140.72;100.00;52526.81;5040769;28;19917;-71
2022/05/15 01:22:50;;;;;;;;;;;;;;;-140.72;100.00;52536.97;5040616;28;20027;-71
2022/05/15 01:25:16;;;;;;;;;;;;;;;-140.72;100.00;52516.66;5023173;28;19940;-71
2022/05/15 01:27:52;;;;;;;;;;;;;;;-140.72;100.00;52530.88;5022464;28;19917;-71
2022/05/15 01:30:17;;;;;;;;;;;;;;;-140.72;100.00;52557.25;5040291;28;19918;-70
2022/05/15 01:32:42;;;;;;;;;;;;;;;-140.72;100.00;52543.03;5040839;28;19996;-71
2022/05/15 01:35:07;;;;;;;;;;;;;;;-140.72;100.00;52530.88;5018981;28;19933;-71
2022/05/15 01:37:33;;;;;;;;;;;;;;;-140.72;100.00;52512.59;5020603;28;19917;-71
2022/05/15 01:39:58;;;;;;;;;;;;;;;-140.72;100.00;52545.06;5020448;28;19917;-71
2022/05/15 01:42:24;;;;;;;;;;;;;;;-140.72;100.00;52512.59;5020765;28;19971;-71
2022/05/15 01:44:49;;;;;;;;;;;;;;;-140.72;100.00;52539.00;5020724;28;19957;-71
2022/05/15 01:47:14;;;;;;;;;;;;;;;-140.72;100.00;52478.13;5020531;28;19997;-71
2022/05/15 01:49:40;;;;;;;;;;;;;;;-140.72;100.00;52530.88;5020599;28;19925;-71
2022/05/15 01:52:05;;;;;;;;;;;;;;;-140.72;100.00;52532.91;5019581;28;19917;-71
2022/05/15 01:54:30;;;;;;;;;;;;;;;-140.72;100.00;52547.09;5020235;28;19928;-71
2022/05/15 01:56:55;;;;;;;;;;;;;;;-140.72;100.00;52563.34;5020003;28;19922;-71
2022/05/15 01:59:21;;;;;;;;;;;;;;;-140.72;100.00;52516.66;5021100;28;19918;-71
2022/05/15 02:01:46;;;;;;;;;;;;;;;-140.72;100.00;52516.66;5019726;28;19928;-71
2022/05/15 02:04:11;;;;;;;;;;;;;;;-140.72;100.00;52518.69;5019861;28;20288;-71
2022/05/15 02:06:37;;;;;;;;;;;;;;;-140.72;100.00;52536.97;5019322;28;20336;-71
2022/05/15 02:09:03;;;;;;;;;;;;;;;-140.72;100.00;52500.44;5019978;28;19924;-71
2022/05/15 02:11:28;;;;;;;;;;;;;;;-140.72;100.00;52539.00;5019931;28;19921;-71
2022/05/15 02:13:53;;;;;;;;;;;;;;;-140.72;100.00;52567.41;5021832;28;19997;-71
2022/05/15 02:16:18;;;;;;;;;;;;;;;-140.72;100.00;52504.50;5023379;28;19977;-71
2022/05/15 02:18:44;;;;;;;;;;;;;;;-140.72;100.00;52526.81;5022590;28;19918;-71
2022/05/15 02:21:09;;;;;;;;;;;;;;;-140.72;100.00;52569.44;5021889;28;19929;-71
2022/05/15 02:23:35;;;;;;;;;;;;;;;-140.72;100.00;52561.31;5023584;28;19918;-71
2022/05/15 02:26:01;;;;;;;;;;;;;;;-140.72;100.00;52516.66;5023930;28;19917;-71
2022/05/15 02:28:27;;;;;;;;;;;;;;;-140.72;100.00;52549.13;5023162;28;19922;-71
2022/05/15 02:30:52;;;;;;;;;;;;;;;-140.72;100.00;52563.34;5023650;28;19918;-71
2022/05/15 02:33:17;;;;;;;;;;;;;;;-140.72;100.00;52530.88;5022144;28;20367;-71
2022/05/15 02:35:43;;;;;;;;;;;;;;;-140.72;100.00;52543.03;5037816;28;19928;-71
2022/05/15 02:38:09;;;;;;;;;;;;;;;-140.72;100.00;52524.78;5042343;28;19924;-71
2022/05/15 02:40:44;;;;;;;;;;;;;;;-140.72;100.00;52541.03;5024885;28;19924;-71
2022/05/15 02:43:09;;;;;;;;;;;;;;;-140.72;100.00;52528.84;5026132;28;19921;-71
2022/05/15 02:45:34;;;;;;;;;;;;;;;-140.72;100.00;52520.72;5025258;28;20378;-71
2022/05/15 02:48:02;;;;;;;;;;;;;;;-140.72;100.00;52577.53;5042598;28;19925;-71
2022/05/15 02:53:11;;;;;;;;;;;;;;;-140.72;100.00;52539.00;5043782;28;19940;-71
2022/05/15 02:55:36;;;;;;;;;;;;;;;-140.72;100.00;52557.25;5043718;28;19917;-71
2022/05/15 02:58:02;;;;;;;;;;;;;;;-140.72;100.00;52545.06;5043284;28;19939;-71
2022/05/15 03:00:28;;;;;;;;;;;;;;;-140.72;100.00;52532.91;5043075;28;20387;-71
2022/05/15 03:02:53;;;;;;;;;;;;;;;-140.72;100.00;52575.50;5043615;28;19917;-71
2022/05/15 03:05:19;;;;;;;;;;;;;;;-140.72;100.00;52532.91;5043986;28;19917;-71
2022/05/15 03:07:44;;;;;;;;;;;;;;;-140.72;100.00;52555.22;5025304;28;20300;-71
2022/05/15 03:10:11;;;;;;;;;;;;;;;-140.72;100.00;52587.69;5043487;28;19968;-71
2022/05/15 03:12:36;;;;;;;;;;;;;;;-140.72;100.00;52561.31;5043447;28;19949;-71
2022/05/15 03:15:02;;;;;;;;;;;;;;;-140.72;100.00;52571.47;5042946;28;19917;-71
2022/05/15 03:17:28;;;;;;;;;;;;;;;-140.72;100.00;52569.44;5025731;28;19932;-71
2022/05/15 03:19:53;;;;;;;;;;;;;;;-140.72;100.00;52565.38;5042840;28;19917;-71
2022/05/15 03:22:18;;;;;;;;;;;;;;;-140.72;100.00;52553.19;5024956;28;20304;-71
2022/05/15 03:24:43;;;;;;;;;;;;;;;-140.72;100.00;52528.84;5024437;28;19945;-71
2022/05/15 03:27:09;;;;;;;;;;;;;;;-140.72;100.00;52528.84;5042783;28;20348;-71
2022/05/15 03:29:34;;;;;;;;;;;;;;;-140.72;100.00;52547.09;5042384;28;19948;-71
2022/05/15 03:31:59;;;;;;;;;;;;;;;-140.72;100.00;52532.91;5024307;28;20052;-71
2022/05/15 03:34:24;;;;;;;;;;;;;;;-140.72;100.00;52532.91;5041890;28;19921;-71
2022/05/15 03:36:53;;;;;;;;;;;;;;;-140.72;100.00;52545.06;5042191;28;19921;-71
2022/05/15 03:39:19;;;;;;;;;;;;;;;-140.72;100.00;52565.38;5024583;28;19917;-71
2022/05/15 03:41:45;;;;;;;;;;;;;;;-140.72;100.00;52581.59;5024177;28;20293;-71
2022/05/15 03:44:11;;;;;;;;;;;;;;;-140.72;100.00;52545.06;5023897;28;20018;-71
2022/05/15 03:46:36;;;;;;;;;;;;;;;-140.72;100.00;52573.50;5042193;28;19939;-71
2022/05/15 03:49:01;;;;;;;;;;;;;;;-140.72;100.00;52530.88;5028027;28;19956;-71
2022/05/15 03:51:27;;;;;;;;;;;;;;;-140.72;100.00;52557.25;5022361;28;19922;-71
2022/05/15 03:53:52;;;;;;;;;;;;;;;-140.72;100.00;52536.97;5021889;28;20021;-71
2022/05/15 03:56:49;;;;;;;;;;;;;;;-140.72;100.00;52561.31;5004498;28;19957;-72
2022/05/15 03:59:03;;;;;;;;;;;;;;;-140.72;100.00;52557.25;5023696;28;19918;-71
2022/05/15 04:01:30;;;;;;;;;;;;;;;-140.72;100.00;52565.38;5002279;28;19924;-71
2022/05/15 04:03:57;;;;;;;;;;;;;;;-140.72;100.00;52549.13;5018926;28;19921;-71
2022/05/15 04:06:23;;;;;;;;;;;;;;;-140.72;100.00;52549.13;5007245;28;20338;-71
2022/05/15 04:08:48;;;;;;;;;;;;;;;-140.72;100.00;52581.59;4997505;28;19960;-71
2022/05/15 04:11:13;;;;;;;;;;;;;;;-140.72;100.00;52569.44;4996950;28;19924;-71
2022/05/15 04:13:38;;;;;;;;;;;;;;;-140.72;100.00;52563.34;5000963;28;19929;-70
2022/05/15 04:16:04;;;;;;;;;;;;;;;-140.72;100.00;52563.34;5001170;28;19924;-70
2022/05/15 04:18:29;;;;;;;;;;;;;;;-140.72;100.00;52557.25;4999563;28;19918;-71
2022/05/15 04:20:54;;;;;;;;;;;;;;;-140.72;100.00;52583.63;5007843;28;19922;-71
2022/05/15 04:23:19;;;;;;;;;;;;;;;-140.72;100.00;52559.28;4985067;28;19983;-71
2022/05/15 04:25:45;;;;;;;;;;;;;;;-140.72;100.00;52530.88;5005613;28;19971;-71
2022/05/15 04:28:10;;;;;;;;;;;;;;;-140.72;100.00;52585.66;5009448;28;19956;-71
2022/05/15 04:30:35;;;;;;;;;;;;;;;-140.72;100.00;52563.34;5005681;28;19917;-71
2022/05/15 04:33:01;;;;;;;;;;;;;;;-140.72;100.00;52557.25;5005213;28;19918;-70
2022/05/15 04:35:26;;;;;;;;;;;;;;;-140.72;100.00;52559.28;5026214;28;19928;-71
2022/05/15 04:37:51;;;;;;;;;;;;;;;-140.72;100.00;52587.69;5031527;28;19917;-71
2022/05/15 04:40:17;;;;;;;;;;;;;;;-140.72;100.00;52545.06;5034378;28;19956;-71
2022/05/15 04:42:43;;;;;;;;;;;;;;;-140.72;100.00;52583.63;5031052;28;19929;-71
2022/05/15 04:45:08;;;;;;;;;;;;;;;-140.72;100.00;52547.09;5036863;28;19921;-71
2022/05/15 04:47:33;;;;;;;;;;;;;;;-140.72;100.00;52536.97;5036925;28;20527;-73
2022/05/15 04:49:58;;;;;;;;;;;;;;;-140.72;100.00;52561.31;5040819;28;20450;-73
2022/05/15 04:52:24;;;;;;;;;;;;;;;-140.72;100.00;52549.13;5023015;28;19940;-73
2022/05/15 04:54:49;;;;;;;;;;;;;;;-140.72;100.00;52522.75;5024918;28;20794;-72
2022/05/15 04:57:14;;;;;;;;;;;;;;;-140.72;100.00;52555.22;5025077;28;20365;-72
2022/05/15 04:59:39;;;;;;;;;;;;;;;-140.72;100.00;52526.81;5029657;28;19937;-73
2022/05/15 05:02:04;;;;;;;;;;;;;;;-140.72;100.00;52541.03;5017112;28;19918;-72
2022/05/15 05:04:30;;;;;;;;;;;;;;;-140.72;100.00;52534.94;5036027;28;19918;-72
2022/05/15 05:06:55;;;;;;;;;;;;;;;-140.72;100.00;52522.75;5036148;28;19976;-72
2022/05/15 05:09:20;;;;;;;;;;;;;;;-140.72;100.00;52528.84;5033387;28;19928;-70
2022/05/15 05:11:45;;;;;;;;;;;;;;;-140.72;100.00;52545.06;5011844;28;19924;-73
2022/05/15 05:14:10;;;;;;;;;;;;;;;-140.72;100.00;52500.44;5017445;28;19924;-72
2022/05/15 05:16:36;;;;;;;;;;;;;;;-140.72;100.00;52547.09;5018332;28;19917;-75
2022/05/15 05:19:02;;;;;;;;;;;;;;;-140.72;100.00;52518.69;5014271;28;19917;-72
2022/05/15 05:21:27;;;;;;;;;;;;;;;-140.72;100.00;52520.72;4999244;28;19921;-74
2022/05/15 05:23:53;;;;;;;;;;;;;;;-140.72;100.00;52530.88;5017576;28;20313;-71
2022/05/15 05:26:18;;;;;;;;;;;;;;;-140.72;100.00;52536.97;5021560;28;19925;-71
2022/05/15 05:28:43;;;;;;;;;;;;;;;-140.72;100.00;52518.69;5019135;28;19922;-72
2022/05/15 05:31:08;;;;;;;;;;;;;;;-140.72;100.00;52532.91;5018783;28;20407;-73
2022/05/15 05:33:34;;;;;;;;;;;;;;;-140.72;100.00;52508.56;5019715;28;19917;-73
2022/05/15 05:35:59;;;;;;;;;;;;;;;-140.72;100.00;52520.72;5018937;28;19925;-72
2022/05/15 05:38:24;;;;;;;;;;;;;;;-140.72;100.00;52506.53;5007442;28;20330;-73
2022/05/15 05:40:49;;;;;;;;;;;;;;;-140.72;100.00;52514.63;5037360;28;19917;-72
2022/05/15 05:43:14;;;;;;;;;;;;;;;-140.72;100.00;52510.59;5024316;28;19921;-72
2022/05/15 05:45:40;;;;;;;;;;;;;;;-140.72;100.00;52476.09;5015700;28;19917;-72
2022/05/15 05:48:05;;;;;;;;;;;;;;;-140.72;100.00;52510.59;5019205;28;19924;-73
2022/05/15 05:50:31;;;;;;;;;;;;;;;-140.72;100.00;52508.56;5034704;28;19921;-73
2022/05/15 05:52:57;;;;;;;;;;;;;;;-140.72;100.00;52502.47;5040884;28;20391;-73
2022/05/15 05:55:23;;;;;;;;;;;;;;;-140.72;100.00;52484.19;5026633;28;19924;-74
2022/05/15 05:57:48;;;;;;;;;;;;;;;-140.72;100.00;52472.03;5028843;28;20308;-73
2022/05/15 06:00:20;;;;;;;;;;;;;;;-140.72;100.00;52439.56;5031419;28;19927;-73
2022/05/15 06:02:45;;;;;;;;;;;;;;;-140.72;100.00;52492.31;5026736;28;19925;-77
2022/05/15 06:05:11;;;;;;;;;;;;;;;-140.72;100.00;52461.88;5015851;28;19917;-69
2022/05/15 06:07:37;;;;;;;;;;;;;;;-140.72;100.00;52474.06;5027436;28;19953;-71
2022/05/15 06:10:03;;;;;;;;;;;;;;;-140.72;100.00;52496.38;5026099;28;20404;-73
2022/05/15 06:12:42;;;;;;;;;;;;;;;-140.72;100.00;52461.88;5035985;28;19917;-73
2022/05/15 06:15:09;;;;;;;;;;;;;;;-140.72;100.00;52435.50;5024975;28;19925;-70
2022/05/15 06:17:34;;;;;;;;;;;;;;;-140.72;100.00;52449.72;5013708;28;19976;-71
2022/05/15 06:23:02;;;;;;;;;;;;;;;-140.72;100.00;52453.75;5016775;28;20343;-72
2022/05/15 06:25:28;;;;;;;;;;;;;;;-140.72;100.00;52451.72;5016256;28;19921;-70
2022/05/15 06:27:53;;;;;;;;;;;;;;;-140.72;100.00;52451.72;5021713;28;19953;-71
2022/05/15 06:30:18;;;;;;;;;;;;;;;-140.72;100.00;52437.53;5021396;28;19917;-71
2022/05/15 06:32:44;;;;;;;;;;;;;;;-140.72;100.00;52453.75;5018943;28;20402;-70
2022/05/15 06:35:10;;;;;;;;;;;;;;;-140.72;100.00;52472.03;5019065;28;19921;-70
2022/05/15 06:37:36;;;;;;;;;;;;;;;-140.72;100.00;52453.75;5022238;28;19932;-71
2022/05/15 06:40:02;;;;;;;;;;;;;;;-140.72;100.00;52423.31;5003965;28;19917;-71
2022/05/15 06:42:29;;;;;;;;;;;;;;;-140.72;100.00;52429.41;5031942;28;19924;-71
2022/05/15 06:44:54;;;;;;;;;;;;;;;-140.72;100.00;52435.50;5021459;28;20368;-71
2022/05/15 06:47:20;;;;;;;;;;;;;;;-140.72;100.00;52423.31;5023822;28;19921;-71
2022/05/15 06:49:45;;;;;;;;;;;;;;;-140.72;100.00;52421.28;5012904;28;20369;-70
2022/05/15 06:52:10;;;;;;;;;;;;;;;-140.72;100.00;52423.31;5028953;28;19917;-71
2022/05/15 06:54:35;;;;;;;;;;;;;;;-140.72;100.00;52427.38;5008650;28;20269;-71
2022/05/15 06:59:44;;;;;;;;;;;;;;;-140.72;100.00;52386.81;5022941;28;19928;-72
2022/05/15 07:02:10;;;;;;;;;;;;;;;-140.72;100.00;52403.03;5025413;28;19979;-73
2022/05/15 07:04:36;;;;;;;;;;;;;;;-140.72;100.00;52405.06;5017184;28;19918;-73
2022/05/15 07:07:01;;;;;;;;;;;;;;;-140.72;100.00;52411.16;5000156;28;19921;-73
2022/05/15 07:09:27;;;;;;;;;;;;;;;-140.72;100.00;52431.44;5018135;28;19975;-78
2022/05/15 07:11:52;;;;;;;;;;;;;;;-140.72;100.00;52376.66;5000641;28;19948;-72
2022/05/15 07:14:18;;;;;;;;;;;;;;;-140.72;100.00;52417.25;5017451;28;19925;-73
2022/05/15 07:16:43;;;;;;;;;;;;;;;-140.72;100.00;52376.66;5018536;28;19917;-73
2022/05/15 07:19:08;;;;;;;;;;;;;;;-140.72;100.00;52398.97;5017921;28;19918;-72
2022/05/15 07:21:33;;;;;;;;;;;;;;;-140.72;100.00;52392.88;5016821;28;19917;-73
2022/05/15 07:23:58;;;;;;;;;;;;;;;-140.72;100.00;52388.84;5017042;28;20016;-71
2022/05/15 07:26:24;;;;;;;;;;;;;;;-140.72;100.00;52396.94;5017612;28;19957;-72
2022/05/15 07:28:51;;;;;;;;;;;;;;;-140.72;100.00;52362.44;5016354;28;20372;-72
2022/05/15 07:31:20;;;;;;;;;;;;;;;-140.72;100.00;52419.28;4998837;28;19917;-72
2022/05/15 07:33:46;;;;;;;;;;;;;;;-140.72;100.00;52362.44;4998143;28;19972;-72
2022/05/15 07:36:12;;;;;;;;;;;;;;;-140.72;100.00;52350.28;5018597;28;19957;-76
2022/05/15 07:38:37;;;;;;;;;;;;;;;-140.72;100.00;52372.59;5020999;28;19930;-73
2022/05/15 07:41:03;;;;;;;;;;;;;;;-140.72;100.00;52336.06;5021936;28;19921;-73
2022/05/15 07:43:28;;;;;;;;;;;;;;;-140.72;100.00;52338.09;5029220;28;20284;-73
2022/05/15 07:45:54;;;;;;;;;;;;;;;-140.72;100.00;52338.09;5028717;28;19917;-73
2022/05/15 07:48:19;;;;;;;;;;;;;;;-140.72;100.00;52346.22;5022891;28;19917;-73
2022/05/15 07:50:44;;;;;;;;;;;;;;;-140.72;100.00;52350.28;5010318;28;19918;-73
2022/05/15 07:53:09;;;;;;;;;;;;;;;-140.72;100.00;52334.03;5028409;28;19943;-72
2022/05/15 07:55:35;;;;;;;;;;;;;;;-140.72;100.00;52317.81;5031397;28;19921;-72
2022/05/15 07:58:00;;;;;;;;;;;;;;;-140.72;100.00;52352.31;5035149;28;19980;-73
2022/05/15 08:00:26;;;;;;;;;;;;;;;-140.72;100.00;52301.59;5040662;28;19929;-73
2022/05/15 08:02:59;;;;;;;;;;;;;;;-140.72;100.00;52285.34;5021715;28;19922;-73
2022/05/15 08:08:09;;;;;;;;;;;;;;;-140.72;100.00;52297.53;5015158;28;20045;-70
2022/05/15 08:10:43;;;;;;;;;;;;;;;-140.72;100.00;52277.22;5013710;28;19917;-70
2022/05/15 08:13:10;;;;;;;;;;;;;;;-140.72;100.00;52293.47;5014665;28;19976;-70
2022/05/15 08:15:36;;;;;;;;;;;;;;;-140.72;100.00;52236.66;5015214;28;19918;-73
2022/05/15 08:23:34;;;;;;;;;;;;;;;-140.72;100.00;52248.81;5020043;28;20008;-72
2022/05/15 08:26:00;;;;;;;;;;;;;;;-140.72;100.00;52218.38;5022553;28;19981;-72
2022/05/15 08:28:25;;;;;;;;;;;;;;;-140.72;100.00;52218.38;4998933;28;20002;-72
2022/05/15 08:30:51;;;;;;;;;;;;;;;-140.72;100.00;52206.22;5018650;28;19922;-72
2022/05/15 08:33:16;;;;;;;;;;;;;;;-140.72;100.00;52189.97;5018107;28;20147;-72
2022/05/15 08:35:41;;;;;;;;;;;;;;;-140.72;100.00;52228.53;5029409;28;19921;-71
2022/05/15 08:38:07;;;;;;;;;;;;;;;-140.72;100.00;52147.38;5012777;28;20411;-71
2022/05/15 08:40:44;;;;;;;;;;;;;;;-140.72;100.00;52157.53;5032758;28;19993;-71
2022/05/15 08:43:11;;;;;;;;;;;;;;;-140.72;100.00;52171.72;5025607;28;19968;-71
2022/05/15 08:45:41;;;;;;;;;;;;;;;-140.72;100.00;52088.53;5025502;28;19937;-71
2022/05/15 08:48:09;;;;;;;;;;;;;;;-140.72;100.00;52175.78;5026483;28;19960;-71
2022/05/15 08:50:37;;;;;;;;;;;;;;;-140.72;100.00;52143.31;5037955;28;19952;-71
2022/05/15 08:53:05;;;;;;;;;;;;;;;-140.72;100.00;52100.72;5017136;28;19933;-71
2022/05/15 08:55:33;;;;;;;;;;;;;;;-140.72;100.00;52102.75;5016792;28;20396;-72
2022/05/15 08:58:03;;;;;;;;;;;;;;;-140.72;100.00;52072.31;5020724;28;19917;-72
2022/05/15 09:00:31;;;;;;;;;;;;;;;-140.72;100.00;52114.91;5020184;28;19921;-74
2022/05/15 09:03:11;;;;;;;;;;;;;;;-140.72;100.00;52096.66;5018576;28;19928;-77
2022/05/15 09:05:37;;;;;;;;;;;;;;;-140.72;100.00;52074.34;5014866;28;20440;-74
2022/05/15 09:08:22;;;;;;;;;;;;;;;-140.72;100.00;52068.25;5015040;28;19965;-76
2022/05/15 09:10:52;;;;;;;;;;;;;;;-140.72;100.00;52056.06;5016000;28;19918;-75
2022/05/15 09:13:29;;;;;;;;;;;;;;;-140.72;100.00;52047.97;5015927;28;19921;-73
2022/05/15 09:15:59;;;;;;;;;;;;;;;-140.72;100.00;52005.34;5017249;28;19967;-73
2022/05/15 09:18:25;;;;;;;;;;;;;;;-140.72;100.00;51972.88;5014811;28;19918;-71
2022/05/15 09:20:53;;;;;;;;;;;;;;;-140.72;100.00;51972.88;5019336;28;20295;-74
2022/05/15 09:23:34;;;;;;;;;;;;;;;-140.72;100.00;51956.66;5026216;28;20714;-71
2022/05/15 09:26:00;;;;;;;;;;;;;;;-140.72;100.00;51922.16;5044872;28;19921;-71
2022/05/15 09:28:27;;;;;;;;;;;;;;;-140.72;100.00;51948.53;5042912;28;19917;-75
2022/05/15 09:30:55;;;;;;;;;;;;;;;-140.72;100.00;51958.69;5029498;28;19918;-74
2022/05/15 09:33:29;;;;;;;;;;;;;;;-140.72;100.00;51934.34;5043840;28;19976;-73
2022/05/15 09:36:13;;;;;;;;;;;;;;;-140.72;100.00;51901.88;5048005;28;19921;-74
2022/05/15 09:38:38;;;;;;;;;;;;;;;-140.72;100.00;51950.56;5022395;28;19925;-73
2022/05/15 09:43:59;;;;;;;;;;;;;;;-140.72;100.00;51873.47;5024227;28;19925;-68
2022/05/15 09:46:26;;;;;;;;;;;;;;;-140.72;100.00;51855.22;5022445;28;20292;-73
2022/05/15 09:49:14;;;;;;;;;;;;;;;-140.72;100.00;51828.84;5031722;28;19996;-73
2022/05/15 09:51:43;;;;;;;;;;;;;;;-140.72;100.00;51814.63;5039019;28;19992;-74
2022/05/15 09:54:10;;;;;;;;;;;;;;;-140.72;100.00;51784.19;5022195;28;19928;-72
2022/05/15 09:56:35;;;;;;;;;;;;;;;-140.72;100.00;51822.75;5027480;28;19971;-73
2022/05/15 09:59:08;;;;;;;;;;;;;;;-140.72;100.00;51834.91;5022666;28;19922;-72
2022/05/15 10:01:35;;;;;;;;;;;;;;;-140.72;100.00;51780.16;5024131;28;19972;-72
2022/05/15 10:04:02;;;;;;;;;;;;;;;-140.72;100.00;51834.91;5026514;28;19922;-73
2022/05/15 10:06:29;;;;;;;;;;;;;;;-140.72;100.00;51826.81;5027043;28;19922;-72
2022/05/15 10:09:09;;;;;;;;;;;;;;;-140.72;100.00;51790.28;5025316;28;19917;-71
2022/05/15 10:11:35;;;;;;;;;;;;;;;-140.72;100.00;51818.69;5020290;28;19964;-75
2022/05/15 10:14:02;;;;;;;;;;;;;;;-140.72;100.00;51749.72;5046750;28;19928;-70
2022/05/15 10:16:29;;;;;;;;;;;;;;;-140.72;100.00;51741.59;5043867;28;19952;-76
2022/05/15 10:19:13;;;;;;;;;;;;;;;-140.72;100.00;51757.81;5022993;28;20284;-74
2022/05/15 10:21:45;;;;;;;;;;;;;;;-140.72;100.00;51778.13;5038154;28;19933;-73
2022/05/15 10:24:29;;;;;;;;;;;;;;;-140.72;100.00;51725.38;5018004;28;19921;-72
2022/05/15 10:27:04;;;;;;;;;;;;;;;-140.72;100.00;51703.06;5003348;28;19925;-72
2022/05/15 10:29:43;;;;;;;;;;;;;;;-140.72;100.00;51711.16;5021540;28;20392;-72
2022/05/15 10:32:18;;;;;;;;;;;;;;;-140.72;100.00;51684.78;5024728;28;20380;-73
2022/05/15 10:34:44;;;;;;;;;;;;;;;-140.72;100.00;51696.97;5003250;28;19921;-73
2022/05/15 10:37:25;;;;;;;;;;;;;;;-140.72;95.18;51699.00;5003865;28;19928;-74
2022/05/15 10:40:08;;;;;;;;;;;;;;;-140.72;85.67;51652.34;5006952;28;19918;-71
2022/05/15 10:42:52;;;;;;;;;;;;;;;-140.72;94.35;51739.56;5034313;28;19943;-71
2022/05/15 10:45:36;;;;;;;;;;;;;;;-140.72;95.62;51672.63;5027860;28;19921;-73
2022/05/15 10:48:08;;;;;;;;;;;;;;;-140.72;82.25;51583.34;5026653;28;19922;-70
2022/05/15 10:50:33;;;;;;;;;;;;;;;-140.72;87.89;51660.44;5029083;28;20023;-70
2022/05/15 10:59:12;;;;;;;;;;;;;;;-140.72;83.58;51619.88;5026394;28;19964;-70
2022/05/15 11:01:51;;;;;;;;;;;;;;;-140.72;83.84;51593.50;5028784;28;19953;-71
2022/05/15 11:04:24;;;;;;;;;;;;;;;-140.72;87.66;51636.09;5031512;28;19917;-70
2022/05/15 11:06:57;;;;;;;;;;;;;;;-140.72;76.43;51579.28;5026022;28;19940;-71
2022/05/15 11:09:44;;;;;;;;;;;;;;;-140.72;72.60;51587.41;5025005;28;20384;-71
2022/05/15 11:12:30;;;;;;;;;;;;;;;-140.72;70.29;51589.44;5027294;28;19996;-72
2022/05/15 11:14:58;;;;;;;;;;;;;;;-140.72;72.96;51585.38;5023580;28;19917;-72
2022/05/15 11:17:52;;;;;;;;;;;;;;;-140.72;65.17;51526.56;5028220;28;19917;-73
2022/05/15 11:20:20;;;;;;;;;;;;;;;-140.72;65.72;51526.56;5036513;28;19921;-72
2022/05/15 11:22:48;;;;;;;;;;;;;;;-140.72;66.20;51530.59;5032169;28;19925;-72
2022/05/15 11:25:26;;;;;;;;;;;;;;;-140.72;60.46;51528.59;5025271;28;19917;-71
2022/05/15 11:27:55;;;;;;;;;;;;;;;-140.72;61.49;51542.78;5009836;28;19973;-72
2022/05/15 11:30:23;;;;;;;;;;;;;;;-140.72;71.43;51542.78;5029940;28;19924;-73
2022/05/15 11:33:01;;;;;;;;;;;;;;;-140.72;65.13;51546.84;5021145;28;19929;-72
2022/05/15 11:35:29;;;;;;;;;;;;;;;-140.72;65.89;51514.38;5023561;28;19922;-72
2022/05/15 11:37:57;;;;;;;;;;;;;;;-140.72;58.23;51502.22;5015881;28;19976;-71
2022/05/15 11:40:29;;;;;;;;;;;;;;;-140.72;58.76;51477.88;5026444;28;20419;-76
2022/05/15 11:42:54;;;;;;;;;;;;;;;-140.72;52.59;51496.13;5007179;28;20330;-72
2022/05/15 11:45:32;;;;;;;;;;;;;;;-140.72;55.97;51483.94;5020999;28;19917;-71
2022/05/15 11:48:03;;;;;;;;;;;;;;;-140.72;60.09;51477.88;5032933;28;20210;-72
2022/05/15 11:50:37;;;;;;;;;;;;;;;-140.72;57.86;51514.38;5029315;28;20068;-71
2022/05/15 11:53:09;;;;;;;;;;;;;;;-140.72;61.54;51494.09;5018347;28;19921;-75
2022/05/15 11:55:45;;;;;;;;;;;;;;;-140.72;62.00;51496.13;5037420;28;19963;-71
2022/05/15 11:58:16;;;;;;;;;;;;;;;-140.72;55.31;51441.34;5032823;28;19917;-71
2022/05/15 12:00:42;;;;;;;;;;;;;;;-140.72;55.46;51410.91;5016915;28;19949;-70
2022/05/15 12:03:27;;;;;;;;;;;;;;;-140.72;55.65;51427.16;5022532;28;19931;-71
2022/05/15 12:06:02;;;;;;;;;;;;;;;-140.72;55.64;51508.28;5013624;28;19952;-71
2022/05/15 12:08:29;;;;;;;;;;;;;;;-140.72;63.55;51514.38;5039399;28;19953;-71
2022/05/15 12:10:58;;;;;;;;;;;;;;;-140.72;59.65;51492.06;5047309;28;19952;-71
2022/05/15 12:13:32;;;;;;;;;;;;;;;-140.72;50.69;51461.63;5038661;28;19957;-71
2022/05/15 12:16:16;;;;;;;;;;;;;;;-140.72;48.86;51429.19;5040177;28;20338;-72
2022/05/15 12:18:43;;;;;;;;;;;;;;;-140.72;48.48;51398.75;5037130;28;19968;-74
2022/05/15 12:21:08;;;;;;;;;;;;;;;-140.72;51.83;51421.06;5021021;28;19925;-71
2022/05/15 12:23:35;;;;;;;;;;;;;;;-140.72;44.99;51412.94;5039153;28;19960;-71
2022/05/15 12:26:07;;;;;;;;;;;;;;;-140.72;45.24;51386.56;5038034;28;19917;-71
2022/05/15 12:28:52;;;;;;;;;;;;;;;-140.72;40.99;51388.59;5039035;28;19917;-73
2022/05/15 12:31:19;;;;;;;;;;;;;;;-140.72;46.37;51445.41;5019368;28;19932;-72
2022/05/15 12:33:45;;;;;;;;;;;;;;;-140.72;42.13;51382.53;5036001;28;20376;-73
2022/05/15 12:36:12;;;;;;;;;;;;;;;-140.72;40.50;51386.56;5042301;28;19928;-72
2022/05/15 12:38:38;;;;;;;;;;;;;;;-140.72;52.87;51485.97;5022518;28;19921;-72
2022/05/15 12:41:03;;;;;;;;;;;;;;;-140.72;43.65;51443.38;5025316;28;19917;-73
2022/05/15 12:43:31;;;;;;;;;;;;;;;-140.72;48.54;51455.56;5042691;28;20073;-74
2022/05/15 12:45:57;;;;;;;;;;;;;;;-140.72;42.31;51431.19;5025133;28;19929;-72
2022/05/15 12:48:23;;;;;;;;;;;;;;;-140.72;46.48;51437.28;5002462;28;19922;-73